Rapports des METAR proches

 

LFAQ - Bray, France
Distance from station: SSO 19km
Mise à jour: 09/07/2020 05:30
Couvert
Couvert
 Vent OSO
Vent: OSO 13 km/h
Température: 17°C
Point de rosée: 15°C
Humidité: 88%
Baromètre: 1016 hPa
Clouds: Couvert
Visibility: 10 km
Cloud details: Couvert 335 m
2020/07/09 03:30 LFAQ 090330Z AUTO 25007KT 9999 OVC011 17/15 Q1016
LFQQ - Lille/Lesquin, France
Distance from station: NNE 53km
Mise à jour: 09/07/2020 05:30
Couvert
Couvert
 Vent OSO
Vent: OSO 17 km/h
Température: 16°C
Point de rosée: 15°C
Humidité: 94%
Baromètre: 1015 hPa
Clouds: Couvert
Visibility: 10 km
Cloud details: Couvert 274 m
2020/07/09 03:30 LFQQ 090330Z AUTO 24009KT 9999 OVC009 16/15 Q1015 NOSIG
EBCV - Chievres Ab, Belgium
Distance from station: NE 88km
Mise à jour: 09/07/2020 05:25
Couvert
Couvert
 Vent OSO
Vent: OSO 19 km/h
Température: 17°C
Point de rosée: 15°C
Humidité: 88%
Baromètre: 1015 hPa
Clouds: Couvert
Visibility: 10 km
Cloud details: Couvert 244 m
2020/07/09 03:25 EBCV 090325Z AUTO 24010KT 9999 OVC008/// 17/15 Q1015 GRN
 
LFOB - Beauvais/Tille(A, France
Distance from station: SSO 88km
Mise à jour: 09/07/2020 05:30
Très nuageux
Très nuageux
 Vent NO
Vent: NO 7 km/h
Température: 15°C
Point de rosée: 14°C
Humidité: 94%
Baromètre: 1017 hPa
Clouds: Très nuageux
Visibility: 10 km
Cloud details: Très nuageux 244 m
2020/07/09 03:30 LFOB 090330Z AUTO 31004KT 9999 BKN008 15/14 Q1017 BECMG BKN030
LFAT - Le Touquet/P. Pl, France
Distance from station: ONO 93km
Mise à jour: 09/07/2020 05:30
Couvert
Couvert
 Vent OSO
Vent: OSO 20 km/h
Température: 16°C
Point de rosée: 15°C
Humidité: 94%
Baromètre: 1015 hPa
Clouds: Couvert
Visibility: 10 km
Cloud details: Couvert 152 m
2020/07/09 03:30 LFAT 090330Z AUTO 24011KT 9999 OVC005 16/15 Q1015
EBFN - Koksijde (bel-Af, Belgium
Distance from station: N 105km
Mise à jour: 09/07/2020 05:25
Couvert
Couvert
 Vent SO
Vent: SO 22 km/h
Température: 15°C
Point de rosée: 15°C
Humidité: 100%
Baromètre: 1014 hPa
Clouds: Couvert
Visibility: 10 km
Cloud details: Couvert 152 m
2020/07/09 03:25 EBFN 090325Z AUTO 23012KT 9999 OVC005/// 15/15 Q1014 YLO
 
EBOS - Oostende Airport, Belgium
Distance from station: N 119km
Mise à jour: 09/07/2020 05:20
Très nuageux
Très nuageux
 Vent SO
Vent: SO 20 km/h
Température: 15°C
Point de rosée: 14°C
Humidité: 94%
Baromètre: 1014 hPa
Clouds: Très nuageux
Visibility: 9 km
Cloud details: Quelques nuages 91 m
Très nuageux 122 m
2020/07/09 03:20 EBOS 090320Z 23011KT 9000 FEW003 BKN004 15/14 Q1014 TEMPO BKN006
EBCI - Charleroi/Gossel, Belgium
Distance from station: ENE 124km
Mise à jour: 09/07/2020 05:20
Pluie faible, Crachin, Couvert
Pluie faible, Crachin, Couvert
 Vent OSO
Vent: OSO 19 km/h
Température: 16°C
Point de rosée: 15°C
Humidité: 94%
Baromètre: 1016 hPa
Résumé: Pluie faible, Crachin
Clouds: Couvert
Visibility: 10 km
Cloud details: Partiellement nuageux 152 m
Couvert 213 m
2020/07/09 03:20 EBCI 090320Z 24010KT 9999 -RADZ SCT005 OVC007 16/15 Q1016 TEMPO 3500 RADZ SCT002 OVC004
LFPG - Charles De Gaull, France
Distance from station: S 125km
Mise à jour: 09/07/2020 05:30
Clair
Clair
 Vent SSO
Vent: SSO 7 km/h
Température: 17°C
Point de rosée: 15°C
Humidité: 88%
Baromètre: 1017 hPa
Résumé: Clair
Visibility: greater than 10 km
2020/07/09 03:30 LFPG 090330Z 21004KT CAVOK 17/15 Q1017 NOSIG
 
LFPT - Cormeilles Vexin, France
Distance from station: SSO 127km
Mise à jour: 09/07/2020 05:30
Clair
Clair
 Vent calm
Vent: calme
Température: 13°C
Point de rosée: 12°C
Humidité: 94%
Baromètre: 1017 hPa
Clouds: Clair
Visibility: 10 km
2020/07/09 03:30 LFPT 090330Z AUTO 00000KT 9999 NCD 13/12 Q1017
LFPB - Paris/Le Bourget, France
Distance from station: S 132km
Mise à jour: 09/07/2020 05:30
Clair
Clair
 Vent SSO
Vent: SSO 6 km/h
Température: 17°C
Point de rosée: 15°C
Humidité: 88%
Baromètre: 1017 hPa
Résumé: Clair
Visibility: greater than 10 km
2020/07/09 03:30 LFPB 090330Z AUTO 21003KT CAVOK 17/15 Q1017 NOSIG
EBFS - Florennes (bel-A, Belgium
Distance from station: E 133km
Mise à jour: 09/07/2020 05:25
Couvert
Couvert
 Vent SO
Vent: SO 15 km/h
Température: 16°C
Point de rosée: 15°C
Humidité: 94%
Baromètre: 1016 hPa
Clouds: Couvert
Visibility: 10 km
Cloud details: Partiellement nuageux 122 m
Très nuageux 183 m
Couvert 274 m
2020/07/09 03:25 EBFS 090325Z AUTO 22008KT 9999 SCT004/// BKN006/// OVC009/// 16/15 Q1016 YLO
 
LFQA - Reims/Prunay, France
Distance from station: SE 143km
Mise à jour: 09/07/2020 05:30
Clair
Clair
 Vent calm
Vent: calme
Température: 13°C
Point de rosée: 12°C
Humidité: 94%
Baromètre: 1017 hPa
Résumé: Clair
Visibility: greater than 10 km
2020/07/09 03:30 LFQA 090330Z AUTO 00000KT CAVOK 13/12 Q1017
LFOP - Rouen/Boos (aut), France
Distance from station: SO 144km
Mise à jour: 09/07/2020 05:30
Couvert
Couvert
 Vent O
Vent: O 15 km/h
Température: 16°C
Point de rosée: 15°C
Humidité: 94%
Baromètre: 1017 hPa
Clouds: Couvert
Visibility: 10 km
Cloud details: Couvert 213 m
2020/07/09 03:30 LFOP 090330Z AUTO 28008KT 9999 OVC007 16/15 Q1017
EBBR - Brussels Nationa, Belgium
Distance from station: NE 148km
Mise à jour: 09/07/2020 05:20
Très nuageux
Très nuageux
 Vent OSO
Vent: OSO 17 km/h
Température: 16°C
Point de rosée: 15°C
Humidité: 94%
Baromètre: 1015 hPa
Clouds: Très nuageux
Visibility: 10 km
Cloud details: Partiellement nuageux 244 m
Très nuageux 305 m
2020/07/09 03:20 EBBR 090320Z 24009KT 9999 SCT008 BKN010 16/15 Q1015 NOSIG
 
EBBE - Beauvechain (baf, Belgium
Distance from station: ENE 156km
Mise à jour: 09/07/2020 05:25
Très nuageux
Très nuageux
 Vent SO
Vent: SO 19 km/h
Température: 16°C
Point de rosée: 16°C
Humidité: 100%
Baromètre: 1015 hPa
Clouds: Très nuageux
Visibility: 10 km
Cloud details: Très nuageux 152 m
Très nuageux 213 m
2020/07/09 03:25 EBBE 090325Z AUTO 23010KT 9999 BKN005/// BKN007/// 16/16 Q1015 YLO
EHFS - Vlissingen, Netherlands
Distance from station: NNE 157km
Mise à jour: 09/07/2020 05:25
Couvert
Couvert
 Vent SO
Vent: SO 33 km/h
Température: 17°C
Point de rosée: 16°C
Humidité: 94%
Baromètre: 1013 hPa
Clouds: Couvert
Visibility: 8 km
Cloud details: Très nuageux 183 m
Couvert 213 m
2020/07/09 03:25 EHFS 090325Z AUTO 23018KT 8000 BKN006/// OVC007/// 17/16 Q1013
LFPV - Villacoublay/Vel, France
Distance from station: SSO 157km
Mise à jour: 09/07/2020 05:30
Clair
Clair
 Vent SSO
Vent: SSO 4 km/h
Température: 15°C
Point de rosée: 14°C
Humidité: 94%
Baromètre: 1017 hPa
Résumé: Clair
Visibility: greater than 10 km
2020/07/09 03:30 LFPV 090330Z AUTO 21002KT CAVOK 15/14 Q1017 NOSIG
 
EGMD - Lydd Airport, United Kingdom
Distance from station: NO 160km
Mise à jour: 09/07/2020 05:20
Pluie faible, Couvert
Pluie faible, Couvert
 Vent OSO
Vent: OSO 26 km/h
Température: 16°C
Point de rosée: 16°C
Humidité: 100%
Baromètre: 1014 hPa
Résumé: Pluie faible
Clouds: Couvert
Visibility: 10 km
Cloud details: Partiellement nuageux 91 m
Très nuageux 213 m
Couvert 305 m
2020/07/09 03:20 EGMD 090320Z AUTO 24014KT 9999 -RA SCT003/// BKN007/// OVC010/// 16/16 Q1014